createdAt,value
2016-10-19T00:00:19.733Z,1007.05
2016-10-19T00:01:19.720Z,1007.07
2016-10-19T00:02:19.701Z,1007.02
2016-10-19T00:03:19.687Z,1007.04
2016-10-19T00:04:19.671Z,1007.01
2016-10-19T00:05:19.656Z,1007.03
2016-10-19T00:06:19.643Z,1007
2016-10-19T00:07:19.624Z,1007
2016-10-19T00:08:19.609Z,1007
2016-10-19T00:09:19.592Z,1006.96
2016-10-19T00:10:19.576Z,1006.93
2016-10-19T00:11:19.566Z,1006.91
2016-10-19T00:12:19.548Z,1006.91
2016-10-19T00:13:19.530Z,1006.84
2016-10-19T00:14:19.514Z,1006.86
2016-10-19T00:15:19.499Z,1006.84
2016-10-19T00:16:19.485Z,1006.82
2016-10-19T00:17:19.467Z,1006.81
2016-10-19T00:18:19.452Z,1006.82
2016-10-19T00:19:19.438Z,1006.75
2016-10-19T00:20:19.420Z,1006.77
2016-10-19T00:21:19.405Z,1006.74
2016-10-19T00:22:19.390Z,1006.77
2016-10-19T00:23:19.372Z,1006.74
2016-10-19T00:24:19.357Z,1006.74
2016-10-19T00:25:19.342Z,1006.77
2016-10-19T00:26:19.327Z,1006.75
2016-10-19T00:27:19.313Z,1006.73
2016-10-19T00:28:19.295Z,1006.75
2016-10-19T00:29:19.279Z,1006.71
2016-10-19T00:30:19.265Z,1006.69
2016-10-19T00:31:19.247Z,1006.7
2016-10-19T00:32:19.234Z,1006.7
2016-10-19T00:33:19.217Z,1006.68
2016-10-19T00:34:19.200Z,1006.68
2016-10-19T00:35:19.187Z,1006.69
2016-10-19T00:36:19.168Z,1006.71
2016-10-19T00:37:19.155Z,1006.67
2016-10-19T00:38:19.140Z,1006.67
2016-10-19T00:39:19.122Z,1006.68
2016-10-19T00:40:19.108Z,1006.64
2016-10-19T00:41:19.092Z,1006.69
2016-10-19T00:42:19.126Z,1006.67
2016-10-19T00:43:19.059Z,1006.67
2016-10-19T00:44:19.044Z,1006.66
2016-10-19T00:45:19.030Z,1006.66
2016-10-19T00:46:19.013Z,1006.68
2016-10-19T00:47:19.002Z,1006.71
2016-10-19T00:48:18.981Z,1006.69
2016-10-19T00:49:18.966Z,1006.66
2016-10-19T00:50:18.951Z,1006.69
2016-10-19T00:51:18.937Z,1006.7
2016-10-19T00:52:18.920Z,1006.69
2016-10-19T00:53:18.903Z,1006.69
2016-10-19T00:54:18.887Z,1006.65
2016-10-19T00:55:18.872Z,1006.66
2016-10-19T00:56:18.857Z,1006.67
2016-10-19T00:57:18.841Z,1006.61
2016-10-19T00:58:18.826Z,1006.65
2016-10-19T00:59:18.810Z,1006.67
2016-10-19T01:00:18.795Z,1006.66
2016-10-19T01:01:18.780Z,1006.64
2016-10-19T01:02:18.763Z,1006.65
2016-10-19T01:03:18.747Z,1006.62
2016-10-19T01:04:18.731Z,1006.65
2016-10-19T01:05:18.717Z,1006.66
2016-10-19T01:06:18.700Z,1006.68
2016-10-19T01:07:18.686Z,1006.6
2016-10-19T01:08:18.679Z,1006.63
2016-10-19T01:09:18.655Z,1006.59
2016-10-19T01:10:18.640Z,1006.56
2016-10-19T01:11:18.623Z,1006.54
2016-10-19T01:12:18.607Z,1006.49
2016-10-19T01:13:18.591Z,1006.46
2016-10-19T01:14:18.575Z,1006.54
2016-10-19T01:15:18.559Z,1006.58
2016-10-19T01:16:18.544Z,1006.54
2016-10-19T01:17:18.531Z,1006.57
2016-10-19T01:18:18.513Z,1006.64
2016-10-19T01:19:18.498Z,1006.5
2016-10-19T01:20:18.684Z,1006.51
2016-10-19T01:21:18.465Z,1006.52
2016-10-19T01:22:18.450Z,1006.54
2016-10-19T01:23:18.434Z,1006.48
2016-10-19T01:24:18.420Z,1006.49
2016-10-19T01:25:18.403Z,1006.49
2016-10-19T01:26:18.391Z,1006.54
2016-10-19T01:27:18.372Z,1006.52
2016-10-19T01:28:18.355Z,1006.53
2016-10-19T01:29:18.339Z,1006.48
2016-10-19T01:30:18.322Z,1006.46
2016-10-19T01:31:18.306Z,1006.53
2016-10-19T01:32:18.292Z,1006.49
2016-10-19T01:33:18.275Z,1006.47
2016-10-19T01:34:18.259Z,1006.49
2016-10-19T01:35:18.245Z,1006.48
2016-10-19T01:36:18.229Z,1006.57
2016-10-19T01:37:18.211Z,1006.63
2016-10-19T01:38:18.196Z,1006.8
2016-10-19T01:39:18.180Z,1006.71
2016-10-19T01:40:18.164Z,1006.69
2016-10-19T01:41:18.150Z,1006.74
2016-10-19T01:42:18.131Z,1006.67
2016-10-19T01:43:18.114Z,1006.6
2016-10-19T01:44:18.099Z,1006.53
2016-10-19T01:45:18.082Z,1006.54
2016-10-19T01:46:18.068Z,1006.5
2016-10-19T01:47:18.051Z,1006.42
2016-10-19T01:48:18.036Z,1006.43
2016-10-19T01:49:18.019Z,1006.4
2016-10-19T01:50:18.003Z,1006.4
2016-10-19T01:51:17.987Z,1006.45
2016-10-19T01:52:17.972Z,1006.41
2016-10-19T01:53:17.955Z,1006.37
2016-10-19T01:54:17.943Z,1006.34
2016-10-19T01:55:17.921Z,1006.36
2016-10-19T01:56:17.909Z,1006.37
2016-10-19T01:57:17.888Z,1006.4
2016-10-19T01:58:17.899Z,1006.4
2016-10-19T01:59:17.857Z,1006.34
2016-10-19T02:00:17.842Z,1006.33
2016-10-19T02:01:17.824Z,1006.32
2016-10-19T02:02:17.830Z,1006.15
2016-10-19T02:03:17.790Z,1006.12
2016-10-19T02:04:17.796Z,1006.04
2016-10-19T02:05:17.758Z,1006.09
2016-10-19T02:06:17.741Z,1006.13
2016-10-19T02:07:17.724Z,1006.12
2016-10-19T02:08:17.708Z,1006.05
2016-10-19T02:09:17.693Z,1006.05
2016-10-19T02:10:17.675Z,1006.15
2016-10-19T02:11:17.660Z,1006.18
2016-10-19T02:12:17.644Z,1006.24
2016-10-19T02:13:17.627Z,1006.25
2016-10-19T02:14:17.609Z,1006.23
2016-10-19T02:15:17.595Z,1006.23
2016-10-19T02:16:17.577Z,1006.21
2016-10-19T02:17:17.560Z,1006.19
2016-10-19T02:18:17.543Z,1006.25
2016-10-19T02:19:17.527Z,1006.28
2016-10-19T02:20:17.512Z,1006.31
2016-10-19T02:21:17.494Z,1006.32
2016-10-19T02:22:17.479Z,1006.3
2016-10-19T02:23:17.461Z,1006.32
2016-10-19T02:24:17.448Z,1006.33
2016-10-19T02:25:17.429Z,1006.33
2016-10-19T02:26:17.413Z,1006.26
2016-10-19T02:27:17.399Z,1006.22
2016-10-19T02:28:17.378Z,1006.22
2016-10-19T02:29:17.362Z,1006.21
2016-10-19T02:30:17.346Z,1006.24
2016-10-19T02:31:17.329Z,1006.2
2016-10-19T02:32:17.315Z,1006.21
2016-10-19T02:33:17.296Z,1006.19
2016-10-19T02:34:17.278Z,1006.18
2016-10-19T02:35:17.267Z,1006.16
2016-10-19T02:36:17.243Z,1006.14
2016-10-19T02:37:17.228Z,1006.14
2016-10-19T02:38:17.213Z,1006.14
2016-10-19T02:39:17.194Z,1006.14
2016-10-19T02:40:17.177Z,1006.12
2016-10-19T02:41:17.161Z,1006.18
2016-10-19T02:42:17.145Z,1006.15
2016-10-19T02:43:17.136Z,1006.11
2016-10-19T02:44:17.113Z,1006.13
2016-10-19T02:45:17.096Z,1006.09
2016-10-19T02:46:17.082Z,1006.15
2016-10-19T02:47:17.062Z,1006.13
2016-10-19T02:48:17.046Z,1006.15
2016-10-19T02:49:17.080Z,1006.16
2016-10-19T02:50:17.013Z,1006.16
2016-10-19T02:51:16.996Z,1006.18
2016-10-19T02:52:16.979Z,1006.15
2016-10-19T02:53:16.961Z,1006.14
2016-10-19T02:54:16.946Z,1006.1
2016-10-19T02:55:16.928Z,1006.09
2016-10-19T02:56:16.911Z,1006.13
2016-10-19T02:57:16.897Z,1006.13
2016-10-19T02:58:16.878Z,1006.1
2016-10-19T02:59:16.860Z,1006.15
2016-10-19T03:00:16.846Z,1006.06
2016-10-19T03:01:16.830Z,1006.14
2016-10-19T03:02:16.812Z,1006.07
2016-10-19T03:03:16.844Z,1006.07
2016-10-19T03:04:16.778Z,1006.07
2016-10-19T03:05:16.760Z,1006.08
2016-10-19T03:06:16.745Z,1006.1
2016-10-19T03:07:16.785Z,1006.16
2016-10-19T03:08:16.710Z,1006.1
2016-10-19T03:09:16.725Z,1006.16
2016-10-19T03:10:16.677Z,1006.13
2016-10-19T03:11:16.660Z,1006.15
2016-10-19T03:12:16.643Z,1006.17
2016-10-19T03:13:16.625Z,1006.17
2016-10-19T03:14:16.610Z,1006.18
2016-10-19T03:15:16.596Z,1006.18
2016-10-19T03:16:16.576Z,1006.15
2016-10-19T03:17:16.564Z,1006.16
2016-10-19T03:18:16.549Z,1006.11
2016-10-19T03:19:16.524Z,1006.09
2016-10-19T03:20:16.714Z,1006.14
2016-10-19T03:21:16.492Z,1006.13
2016-10-19T03:22:16.475Z,1006.15
2016-10-19T03:23:16.459Z,1006.16
2016-10-19T03:24:16.442Z,1006.16
2016-10-19T03:25:16.429Z,1006.1
2016-10-19T03:26:16.409Z,1006.13
2016-10-19T03:27:16.390Z,1006.12
2016-10-19T03:28:16.375Z,1006.06
2016-10-19T03:29:16.358Z,1006.17
2016-10-19T03:30:16.341Z,1006.17
2016-10-19T03:31:16.324Z,1006.22
2016-10-19T03:32:16.310Z,1006.16
2016-10-19T03:33:16.292Z,1006.16
2016-10-19T03:34:16.276Z,1006.17
2016-10-19T03:35:16.259Z,1006.15
2016-10-19T03:36:16.242Z,1006.19
2016-10-19T03:37:16.228Z,1006.17
2016-10-19T03:38:16.208Z,1006.2
2016-10-19T03:39:16.193Z,1006.2
2016-10-19T03:40:16.183Z,1006.24
2016-10-19T03:41:16.158Z,1006.2
2016-10-19T03:42:16.142Z,1006.12
2016-10-19T03:43:16.176Z,1006.15
2016-10-19T03:44:16.115Z,1006.13
2016-10-19T03:45:16.093Z,1006.13
2016-10-19T03:46:16.075Z,1006.09
2016-10-19T03:47:16.058Z,1006.09
2016-10-19T03:48:16.043Z,1006.07
2016-10-19T03:49:16.026Z,1006.05
2016-10-19T03:50:16.008Z,1006.07
2016-10-19T03:51:15.994Z,1006.02
2016-10-19T03:52:15.975Z,1006.02
2016-10-19T03:53:15.959Z,1006.01
2016-10-19T03:54:15.943Z,1006
2016-10-19T03:55:15.976Z,1006.01
2016-10-19T03:56:15.909Z,1006.05
2016-10-19T03:57:15.892Z,1005.98
2016-10-19T03:58:15.875Z,1005.99
2016-10-19T03:59:15.860Z,1005.92
2016-10-19T04:00:15.852Z,1005.96
2016-10-19T04:01:15.832Z,1005.91
2016-10-19T04:02:15.814Z,1005.91
2016-10-19T04:03:15.792Z,1005.88
2016-10-19T04:04:15.777Z,1005.82
2016-10-19T04:05:15.812Z,1005.84
2016-10-19T04:06:15.746Z,1005.81
2016-10-19T04:07:15.728Z,1005.81
2016-10-19T04:08:15.711Z,1005.75
2016-10-19T04:09:15.695Z,1005.77
2016-10-19T04:10:15.678Z,1005.76
2016-10-19T04:11:15.662Z,1005.79
2016-10-19T04:12:15.645Z,1005.81
2016-10-19T04:13:15.627Z,1005.83
2016-10-19T04:14:15.613Z,1005.8
2016-10-19T04:15:15.595Z,1005.81
2016-10-19T04:16:15.580Z,1005.83
2016-10-19T04:17:15.565Z,1005.81
2016-10-19T04:18:15.545Z,1005.84
2016-10-19T04:19:15.528Z,1005.84
2016-10-19T04:20:15.518Z,1005.81
2016-10-19T04:21:15.496Z,1005.82
2016-10-19T04:22:15.480Z,1005.79
2016-10-19T04:23:15.465Z,1005.78
2016-10-19T04:24:15.449Z,1005.77
2016-10-19T04:25:15.431Z,1005.75
2016-10-19T04:26:15.414Z,1005.75
2016-10-19T04:27:15.397Z,1005.78
2016-10-19T04:28:15.383Z,1005.76
2016-10-19T04:29:15.365Z,1005.72
2016-10-19T04:30:15.347Z,1005.69
2016-10-19T04:31:15.331Z,1005.72
2016-10-19T04:32:15.314Z,1005.72
2016-10-19T04:33:15.297Z,1005.77
2016-10-19T04:34:15.282Z,1005.79
2016-10-19T04:35:15.264Z,1005.77
2016-10-19T04:36:15.247Z,1005.79
2016-10-19T04:37:15.231Z,1005.72
2016-10-19T04:38:15.213Z,1005.81
2016-10-19T04:39:15.197Z,1005.75
2016-10-19T04:40:15.180Z,1005.81
2016-10-19T04:41:15.166Z,1005.75
2016-10-19T04:42:15.158Z,1005.71
2016-10-19T04:43:15.245Z,1005.76
2016-10-19T04:44:15.119Z,1005.77
2016-10-19T04:45:15.099Z,1005.74
2016-10-19T04:46:15.082Z,1005.75
2016-10-19T04:47:15.064Z,1005.73
2016-10-19T04:48:15.048Z,1005.7
2016-10-19T04:49:15.032Z,1005.68
2016-10-19T04:50:15.015Z,1005.61
2016-10-19T04:51:14.998Z,1005.6
2016-10-19T04:52:14.981Z,1005.64
2016-10-19T04:53:14.964Z,1005.63
2016-10-19T04:54:14.946Z,1005.62
2016-10-19T04:55:14.930Z,1005.6
2016-10-19T04:56:14.914Z,1005.7
2016-10-19T04:57:14.897Z,1005.63
2016-10-19T04:58:14.880Z,1005.66
2016-10-19T04:59:14.863Z,1005.66
2016-10-19T05:00:14.848Z,1005.59
2016-10-19T05:01:14.834Z,1005.55
2016-10-19T05:02:14.812Z,1005.58
2016-10-19T05:03:14.826Z,1005.57
2016-10-19T05:04:14.784Z,1005.58
2016-10-19T05:05:14.771Z,1005.53
2016-10-19T05:06:14.748Z,1005.48
2016-10-19T05:07:14.731Z,1005.5
2016-10-19T05:08:14.717Z,1005.44
2016-10-19T05:09:14.745Z,1005.4
2016-10-19T05:10:14.680Z,1005.39
2016-10-19T05:11:14.663Z,1005.38
2016-10-19T05:12:14.646Z,1005.34
2016-10-19T05:13:14.630Z,1005.27
2016-10-19T05:14:14.616Z,1005.32
2016-10-19T05:15:14.596Z,1005.3
2016-10-19T05:16:14.579Z,1005.29
2016-10-19T05:17:14.564Z,1005.28
2016-10-19T05:18:14.545Z,1005.32
2016-10-19T05:19:14.530Z,1005.31
2016-10-19T05:20:14.713Z,1005.31
2016-10-19T05:21:14.496Z,1005.31
2016-10-19T05:22:14.480Z,1005.29
2016-10-19T05:23:14.463Z,1005.3
2016-10-19T05:24:14.446Z,1005.36
2016-10-19T05:25:14.433Z,1005.38
2016-10-19T05:26:14.414Z,1005.41
2016-10-19T05:27:14.401Z,1005.4
2016-10-19T05:28:14.383Z,1005.38
2016-10-19T05:29:14.365Z,1005.38
2016-10-19T05:30:14.349Z,1005.43
2016-10-19T05:31:14.328Z,1005.38
2016-10-19T05:32:14.312Z,1005.4
2016-10-19T05:33:14.300Z,1005.4
2016-10-19T05:34:14.279Z,1005.47
2016-10-19T05:35:14.263Z,1005.4
2016-10-19T05:36:14.247Z,1005.36
2016-10-19T05:37:14.230Z,1005.33
2016-10-19T05:38:14.213Z,1005.33
2016-10-19T05:39:14.196Z,1005.38
2016-10-19T05:40:14.182Z,1005.34
2016-10-19T05:41:14.167Z,1005.36
2016-10-19T05:42:14.146Z,1005.36
2016-10-19T05:43:14.132Z,1005.34
2016-10-19T05:44:14.113Z,1005.36
2016-10-19T05:45:14.100Z,1005.38
2016-10-19T05:46:14.080Z,1005.34
2016-10-19T05:47:14.064Z,1005.35
2016-10-19T05:48:14.048Z,1005.36
2016-10-19T05:49:14.030Z,1005.35
2016-10-19T05:50:14.014Z,1005.33
2016-10-19T05:51:14.006Z,1005.32
2016-10-19T05:52:13.993Z,1005.28
2016-10-19T05:53:13.969Z,1005.26
2016-10-19T05:54:13.948Z,1005.29
2016-10-19T05:55:13.932Z,1005.31
2016-10-19T05:56:13.914Z,1005.33
2016-10-19T05:57:13.899Z,1005.25
2016-10-19T05:58:13.883Z,1005.26
2016-10-19T05:59:13.865Z,1005.24
2016-10-19T06:00:13.849Z,1005.28
2016-10-19T06:01:13.832Z,1005.27
2016-10-19T06:02:13.870Z,1005.23
2016-10-19T06:03:13.799Z,1005.16
2016-10-19T06:04:13.783Z,1005.18
2016-10-19T06:05:13.767Z,1005.18
2016-10-19T06:06:13.752Z,1005.23
2016-10-19T06:07:13.733Z,1005.15
2016-10-19T06:08:13.766Z,1005.17
2016-10-19T06:09:13.700Z,1005.14
2016-10-19T06:10:13.688Z,1005.14
2016-10-19T06:11:13.668Z,1005.09
2016-10-19T06:12:13.650Z,1005.12
2016-10-19T06:13:13.636Z,1005.13
2016-10-19T06:14:13.618Z,1005.09
2016-10-19T06:15:13.602Z,1005.09
2016-10-19T06:16:13.586Z,1005.14
2016-10-19T06:17:13.567Z,1005.07
2016-10-19T06:18:13.551Z,1005.11
2016-10-19T06:19:13.535Z,1005.06
2016-10-19T06:20:13.518Z,1005.1
2016-10-19T06:21:13.501Z,1005.11
2016-10-19T06:22:13.485Z,1005.03
2016-10-19T06:23:13.469Z,1005.06
2016-10-19T06:24:13.464Z,1005.02
2016-10-19T06:25:13.436Z,1005.03
2016-10-19T06:26:13.419Z,1005.03
2016-10-19T06:27:13.403Z,1005.01
2016-10-19T06:28:13.388Z,1004.99
2016-10-19T06:29:13.370Z,1005.01
2016-10-19T06:30:13.353Z,1005.05
2016-10-19T06:31:13.337Z,1004.98
2016-10-19T06:32:13.321Z,1004.96
2016-10-19T06:33:13.302Z,1004.93
2016-10-19T06:34:13.287Z,1004.92
2016-10-19T06:35:13.271Z,1004.89
2016-10-19T06:36:13.254Z,1004.91
2016-10-19T06:37:13.239Z,1004.95
2016-10-19T06:38:13.226Z,1004.9
2016-10-19T06:39:13.206Z,1004.99
2016-10-19T06:40:13.187Z,1004.89
2016-10-19T06:41:13.173Z,1004.99
2016-10-19T06:42:13.155Z,1004.93
2016-10-19T06:43:13.140Z,1004.94
2016-10-19T06:44:13.124Z,1004.94
2016-10-19T06:45:13.108Z,1004.95
2016-10-19T06:46:13.091Z,1004.96
2016-10-19T06:47:13.076Z,1004.91
2016-10-19T06:48:13.056Z,1004.89
2016-10-19T06:49:13.041Z,1004.9
2016-10-19T06:50:13.024Z,1004.81
2016-10-19T06:51:13.007Z,1004.8
2016-10-19T06:52:12.990Z,1004.83
2016-10-19T06:53:12.975Z,1004.79
2016-10-19T06:54:12.958Z,1004.84
2016-10-19T06:55:12.941Z,1004.86
2016-10-19T06:56:12.925Z,1004.81
2016-10-19T06:57:12.909Z,1004.81
2016-10-19T06:58:12.899Z,1004.8
2016-10-19T06:59:12.876Z,1004.76
2016-10-19T07:00:12.859Z,1004.8
2016-10-19T07:01:12.843Z,1004.77
2016-10-19T07:02:12.825Z,1004.74
2016-10-19T07:03:12.808Z,1004.77
2016-10-19T07:04:12.795Z,1004.73
2016-10-19T07:05:12.776Z,1004.76
2016-10-19T07:06:12.759Z,1004.77
2016-10-19T07:07:12.751Z,1004.69
2016-10-19T07:08:12.730Z,1004.66
2016-10-19T07:09:12.711Z,1004.64
2016-10-19T07:10:12.693Z,1004.53
2016-10-19T07:11:12.681Z,1004.55
2016-10-19T07:12:12.666Z,1004.55
2016-10-19T07:13:12.644Z,1004.5
2016-10-19T07:14:12.627Z,1004.55
2016-10-19T07:15:12.611Z,1004.49
2016-10-19T07:16:12.596Z,1004.52
2016-10-19T07:17:12.588Z,1004.52
2016-10-19T07:18:12.567Z,1004.52
2016-10-19T07:19:12.557Z,1004.5
2016-10-19T07:20:12.738Z,1004.52
2016-10-19T07:21:12.512Z,1004.5
2016-10-19T07:22:12.496Z,1004.47
2016-10-19T07:23:12.480Z,1004.47
2016-10-19T07:24:12.461Z,1004.46
2016-10-19T07:25:12.447Z,1004.45
2016-10-19T07:26:12.428Z,1004.46
2016-10-19T07:27:12.413Z,1004.47
2016-10-19T07:28:12.396Z,1004.45
2016-10-19T07:29:12.381Z,1004.46
2016-10-19T07:30:12.368Z,1004.44
2016-10-19T07:31:12.350Z,1004.47
2016-10-19T07:32:12.331Z,1004.46
2016-10-19T07:33:12.315Z,1004.43
2016-10-19T07:34:12.299Z,1004.43
2016-10-19T07:35:12.283Z,1004.38
2016-10-19T07:36:12.267Z,1004.38
2016-10-19T07:37:12.257Z,1004.39
2016-10-19T07:38:12.233Z,1004.51
2016-10-19T07:39:12.217Z,1004.42
2016-10-19T07:40:12.202Z,1004.36
2016-10-19T07:41:12.184Z,1004.38
2016-10-19T07:42:12.166Z,1004.29
2016-10-19T07:43:12.149Z,1004.27
2016-10-19T07:44:12.133Z,1004.25
2016-10-19T07:45:12.118Z,1004.27
2016-10-19T07:46:12.103Z,1004.32
2016-10-19T07:47:12.083Z,1004.28
2016-10-19T07:48:12.069Z,1004.26
2016-10-19T07:49:12.051Z,1004.23
2016-10-19T07:50:12.034Z,1004.23
2016-10-19T07:51:12.018Z,1004.15
2016-10-19T07:52:12.001Z,1004.2
2016-10-19T07:53:11.983Z,1004.15
2016-10-19T07:54:11.967Z,1004.08
2016-10-19T07:55:11.952Z,1004.14
2016-10-19T07:56:11.935Z,1004.05
2016-10-19T07:57:11.921Z,1004.1
2016-10-19T07:58:11.904Z,1004.06
2016-10-19T07:59:11.887Z,1004.03
2016-10-19T08:00:11.906Z,1003.95
2016-10-19T08:01:11.855Z,1003.93
2016-10-19T08:02:11.836Z,1003.9
2016-10-19T08:03:11.817Z,1003.9
2016-10-19T08:04:11.802Z,1003.91
2016-10-19T08:05:11.787Z,1003.86
2016-10-19T08:06:11.769Z,1003.85
2016-10-19T08:07:11.754Z,1003.79
2016-10-19T08:08:11.736Z,1003.74
2016-10-19T08:09:11.717Z,1003.71
2016-10-19T08:10:11.701Z,1003.67
2016-10-19T08:11:11.686Z,1003.71
2016-10-19T08:12:11.667Z,1003.64
2016-10-19T08:13:11.655Z,1003.64
2016-10-19T08:14:11.636Z,1003.57
2016-10-19T08:15:11.619Z,1003.52
2016-10-19T08:16:11.600Z,1003.55
2016-10-19T08:17:11.586Z,1003.47
2016-10-19T08:18:11.567Z,1003.45
2016-10-19T08:19:11.550Z,1003.38
2016-10-19T08:20:11.533Z,1003.36
2016-10-19T08:21:11.518Z,1003.34
2016-10-19T08:22:11.501Z,1003.24
2016-10-19T08:23:11.483Z,1003.14
2016-10-19T08:24:11.467Z,1003.1
2016-10-19T08:25:11.450Z,1003.05
2016-10-19T08:26:11.433Z,1003.05
2016-10-19T08:27:11.418Z,1003.04
2016-10-19T08:28:11.403Z,1003.01
2016-10-19T08:29:11.384Z,1002.98
2016-10-19T08:30:11.372Z,1002.95
2016-10-19T08:31:11.353Z,1002.9
2016-10-19T08:32:11.336Z,1002.87
2016-10-19T08:33:11.318Z,1002.84
2016-10-19T08:34:11.302Z,1002.83
2016-10-19T08:35:11.287Z,1002.82
2016-10-19T08:36:11.269Z,1002.75
2016-10-19T08:37:11.251Z,1002.7
2016-10-19T08:38:11.236Z,1002.68
2016-10-19T08:39:11.220Z,1002.62
2016-10-19T08:40:11.201Z,1002.65
2016-10-19T08:41:11.187Z,1002.63
2016-10-19T08:42:11.169Z,1002.62
2016-10-19T08:43:11.155Z,1002.63
2016-10-19T08:44:11.140Z,1002.59
2016-10-19T08:45:11.121Z,1002.5
2016-10-19T08:46:11.104Z,1002.55
2016-10-19T08:47:11.089Z,1002.44
2016-10-19T08:48:11.070Z,1002.42
2016-10-19T08:49:11.074Z,1002.46
2016-10-19T08:50:11.044Z,1002.38
2016-10-19T08:51:11.025Z,1002.39
2016-10-19T08:52:11.005Z,1002.35
2016-10-19T08:53:10.989Z,1002.35
2016-10-19T08:54:10.975Z,1002.34
2016-10-19T08:55:10.957Z,1002.38
2016-10-19T08:56:10.945Z,1002.33
2016-10-19T08:57:10.928Z,1002.27
2016-10-19T08:58:10.918Z,1002.29
2016-10-19T08:59:10.896Z,1002.35
2016-10-19T09:00:10.875Z,1002.24
2016-10-19T09:01:10.861Z,1002.36
2016-10-19T09:02:10.842Z,1002.26
2016-10-19T09:03:10.825Z,1002.33
2016-10-19T09:04:10.811Z,1002.3
2016-10-19T09:05:10.793Z,1002.26
2016-10-19T09:06:10.778Z,1002.28
2016-10-19T09:07:10.760Z,1002.28
2016-10-19T09:08:10.747Z,1002.33
2016-10-19T09:09:10.730Z,1002.27
2016-10-19T09:10:10.710Z,1002.29
2016-10-19T09:11:10.696Z,1002.21
2016-10-19T09:12:10.678Z,1002.27
2016-10-19T09:13:10.664Z,1002.19
2016-10-19T09:14:10.645Z,1002.22
2016-10-19T09:15:10.629Z,1002.12
2016-10-19T09:16:10.613Z,1002.12
2016-10-19T09:17:10.596Z,1002.1
2016-10-19T09:18:10.584Z,1002.08
2016-10-19T09:19:10.564Z,1002.02
2016-10-19T09:20:10.547Z,1002.02
2016-10-19T09:21:10.529Z,1001.93
2016-10-19T09:22:10.517Z,1001.85
2016-10-19T09:23:10.496Z,1001.87
2016-10-19T09:24:10.484Z,1001.88
2016-10-19T09:25:10.471Z,1001.86
2016-10-19T09:26:10.453Z,1001.83
2016-10-19T09:27:10.435Z,1001.82
2016-10-19T09:28:10.418Z,1001.74
2016-10-19T09:29:10.402Z,1001.71
2016-10-19T09:30:10.386Z,1001.67
2016-10-19T09:31:10.372Z,1001.63
2016-10-19T09:32:10.356Z,1001.64
2016-10-19T09:33:10.335Z,1001.74
2016-10-19T09:34:10.319Z,1001.73
2016-10-19T09:35:10.302Z,1001.6
2016-10-19T09:36:10.285Z,1001.63
2016-10-19T09:37:10.269Z,1001.57
2016-10-19T09:38:10.257Z,1001.56
2016-10-19T09:39:10.238Z,1001.52
2016-10-19T09:40:10.220Z,1001.49
2016-10-19T09:41:10.205Z,1001.47
2016-10-19T09:42:10.189Z,1001.43
2016-10-19T09:43:10.171Z,1001.54
2016-10-19T09:44:10.156Z,1001.45
2016-10-19T09:45:10.139Z,1001.38
2016-10-19T09:46:10.123Z,1001.36
2016-10-19T09:47:10.107Z,1001.38
2016-10-19T09:48:10.090Z,1001.33
2016-10-19T09:49:10.091Z,1001.37
2016-10-19T09:50:10.059Z,1001.35
2016-10-19T09:51:10.041Z,1001.28
2016-10-19T09:52:10.026Z,1001.33
2016-10-19T09:53:10.012Z,1001.29
2016-10-19T09:54:09.994Z,1001.21
2016-10-19T09:55:09.979Z,1001.31
2016-10-19T09:56:09.962Z,1001.11
2016-10-19T09:57:09.946Z,1001.16
2016-10-19T09:58:09.928Z,1000.99
2016-10-19T09:59:09.917Z,1001.06
2016-10-19T10:00:09.898Z,1000.94
2016-10-19T10:01:09.882Z,1000.92
2016-10-19T10:02:09.866Z,1000.96
2016-10-19T10:03:09.851Z,1000.92
2016-10-19T10:04:09.837Z,1001.01
2016-10-19T10:05:09.819Z,1000.98
2016-10-19T10:06:09.802Z,1001.03
2016-10-19T10:07:09.787Z,1000.99
2016-10-19T10:08:09.771Z,1001.08
2016-10-19T10:09:09.754Z,1000.83
2016-10-19T10:10:09.741Z,1000.9
2016-10-19T10:11:09.721Z,1000.87
2016-10-19T10:12:09.706Z,1000.9
2016-10-19T10:13:09.740Z,1000.9
2016-10-19T10:14:09.674Z,1000.9
2016-10-19T10:15:09.659Z,1000.81
2016-10-19T10:16:09.642Z,1000.78
2016-10-19T10:17:09.627Z,1000.73
2016-10-19T10:18:09.612Z,1000.79
2016-10-19T10:19:09.596Z,1000.75
2016-10-19T10:20:09.581Z,1000.7
2016-10-19T10:21:09.566Z,1000.7
2016-10-19T10:22:09.548Z,1000.72
2016-10-19T10:23:09.535Z,1000.66
2016-10-19T10:24:09.536Z,1000.8
2016-10-19T10:25:09.501Z,1000.72
2016-10-19T10:26:09.485Z,1000.82
2016-10-19T10:27:09.468Z,1000.69
2016-10-19T10:28:09.453Z,1000.79
2016-10-19T10:29:09.438Z,1000.8
2016-10-19T10:30:09.423Z,1000.74
2016-10-19T10:31:09.406Z,1000.62
2016-10-19T10:32:09.391Z,1000.68
2016-10-19T10:33:09.375Z,1000.62
2016-10-19T10:34:09.360Z,1000.58
2016-10-19T10:35:09.344Z,1000.62
2016-10-19T10:36:09.328Z,1000.56
2016-10-19T10:37:09.362Z,1000.52
2016-10-19T10:38:09.296Z,1000.53
2016-10-19T10:39:09.281Z,1000.53
2016-10-19T10:40:09.265Z,1000.49
2016-10-19T10:41:09.251Z,1000.46
2016-10-19T10:42:09.234Z,1000.45
2016-10-19T10:43:09.217Z,1000.41
2016-10-19T10:44:09.218Z,1000.42
2016-10-19T10:45:09.189Z,1000.36
2016-10-19T10:46:09.172Z,1000.31
2016-10-19T10:47:09.160Z,1000.33
2016-10-19T10:48:09.141Z,1000.27
2016-10-19T10:49:09.125Z,1000.28
2016-10-19T10:50:09.109Z,1000.28
2016-10-19T10:51:09.094Z,1000.31
2016-10-19T10:52:09.080Z,1000.35
2016-10-19T10:53:09.064Z,1000.27
2016-10-19T10:54:09.046Z,1000.31
2016-10-19T10:55:09.032Z,1000.3
2016-10-19T10:56:09.018Z,1000.3
2016-10-19T10:57:09.003Z,1000.31
2016-10-19T10:58:08.986Z,1000.33
2016-10-19T10:59:08.973Z,1000.28
2016-10-19T11:00:08.954Z,1000.34
2016-10-19T11:01:08.940Z,1000.35
2016-10-19T11:02:08.924Z,1000.33
2016-10-19T11:03:08.907Z,1000.3
2016-10-19T11:04:08.893Z,1000.33
2016-10-19T11:05:08.879Z,1000.43
2016-10-19T11:06:08.865Z,1000.27
2016-10-19T11:07:08.851Z,1000.29
2016-10-19T11:08:08.835Z,1000.22
2016-10-19T11:09:08.820Z,1000.16
2016-10-19T11:10:08.805Z,1000.14
2016-10-19T11:11:08.791Z,1000.21
2016-10-19T11:12:08.777Z,1000.12
2016-10-19T11:13:08.762Z,1000.07
2016-10-19T11:14:08.746Z,1000.04
2016-10-19T11:15:08.732Z,1000.02
2016-10-19T11:16:08.717Z,999.99
2016-10-19T11:17:08.704Z,1000.01
2016-10-19T11:18:08.688Z,999.98
2016-10-19T11:19:08.674Z,1000.03
2016-10-19T11:20:08.661Z,1000.04
2016-10-19T11:21:08.848Z,1000.06
2016-10-19T11:22:08.629Z,999.97
2016-10-19T11:23:08.616Z,1000
2016-10-19T11:24:08.600Z,1000.03
2016-10-19T11:25:08.586Z,1000.08
2016-10-19T11:26:08.572Z,999.99
2016-10-19T11:27:08.560Z,999.98
2016-10-19T11:28:08.557Z,999.91
2016-10-19T11:29:08.531Z,999.85
2016-10-19T11:30:08.514Z,999.85
2016-10-19T11:31:08.549Z,999.83
2016-10-19T11:32:08.485Z,999.82
2016-10-19T11:33:08.471Z,999.78
2016-10-19T11:34:08.455Z,999.77
2016-10-19T11:35:08.442Z,999.76
2016-10-19T11:36:08.428Z,999.67
2016-10-19T11:37:08.420Z,999.79
2016-10-19T11:38:08.397Z,999.77
2016-10-19T11:39:08.382Z,999.65
2016-10-19T11:40:08.370Z,999.64
2016-10-19T11:41:08.352Z,999.66
2016-10-19T11:42:08.338Z,999.61
2016-10-19T11:43:08.323Z,999.71
2016-10-19T11:44:08.308Z,999.61
2016-10-19T11:45:08.293Z,999.56
2016-10-19T11:46:08.279Z,999.54
2016-10-19T11:47:08.262Z,999.47
2016-10-19T11:48:08.249Z,999.55
2016-10-19T11:49:08.236Z,999.49
2016-10-19T11:50:08.220Z,999.46
2016-10-19T11:51:08.206Z,999.45
2016-10-19T11:52:08.190Z,999.45
2016-10-19T11:53:08.176Z,999.37
2016-10-19T11:54:08.165Z,999.39
2016-10-19T11:55:08.146Z,999.35
2016-10-19T11:56:08.134Z,999.32
2016-10-19T11:57:08.118Z,999.28
2016-10-19T11:58:08.102Z,999.28
2016-10-19T11:59:08.088Z,999.21
2016-10-19T12:00:08.073Z,999.17
2016-10-19T12:01:08.059Z,999.23
2016-10-19T12:02:08.043Z,999.14
2016-10-19T12:03:08.028Z,999.21
2016-10-19T12:04:08.015Z,999.37
2016-10-19T12:05:08.001Z,999.26
2016-10-19T12:06:07.985Z,999.26
2016-10-19T12:07:07.970Z,999.16
2016-10-19T12:08:07.955Z,999.12
2016-10-19T12:09:07.940Z,999.23